createdAt,value
2023-04-07T00:00:20.227Z,0.00
2023-04-07T00:01:20.186Z,0.00
2023-04-07T00:02:20.286Z,0.00
2023-04-07T00:03:20.260Z,0.00
2023-04-07T00:04:20.257Z,0.00
2023-04-07T00:05:20.184Z,0.00
2023-04-07T00:06:20.148Z,0.00
2023-04-07T00:07:20.147Z,0.00
2023-04-07T00:08:20.137Z,0.00
2023-04-07T00:09:20.123Z,0.00
2023-04-07T00:10:20.144Z,0.00
2023-04-07T00:11:20.118Z,0.00
2023-04-07T00:12:20.106Z,0.00
2023-04-07T00:13:20.099Z,0.00
2023-04-07T00:14:20.081Z,0.00
2023-04-07T00:15:20.103Z,0.00
2023-04-07T00:16:20.165Z,0.00
2023-04-07T00:17:20.078Z,0.00
2023-04-07T00:18:20.061Z,0.00
2023-04-07T00:19:20.183Z,0.00
2023-04-07T00:20:20.079Z,0.00
2023-04-07T00:21:20.126Z,0.00
2023-04-07T00:22:20.028Z,0.00
2023-04-07T00:23:20.026Z,0.00
2023-04-07T00:24:30.971Z,0.00
2023-04-07T00:25:22.033Z,0.00
2023-04-07T00:26:20.018Z,0.00
2023-04-07T00:27:19.989Z,0.00
2023-04-07T00:28:19.978Z,0.00
2023-04-07T00:29:19.972Z,0.00
2023-04-07T00:30:19.991Z,0.00
2023-04-07T00:31:19.999Z,0.00
2023-04-07T00:32:19.963Z,0.00
2023-04-07T00:33:19.949Z,0.00
2023-04-07T00:34:19.936Z,0.00
2023-04-07T00:35:19.958Z,0.00
2023-04-07T00:36:19.915Z,0.00
2023-04-07T00:37:19.914Z,0.00
2023-04-07T00:38:19.907Z,0.00
2023-04-07T00:39:19.891Z,0.00
2023-04-07T00:40:19.914Z,0.00
2023-04-07T00:41:19.884Z,0.00
2023-04-07T00:42:19.890Z,0.00
2023-04-07T00:43:19.885Z,0.00
2023-04-07T00:44:19.863Z,0.00
2023-04-07T00:45:19.884Z,0.00
2023-04-07T00:46:19.849Z,0.00
2023-04-07T00:47:19.844Z,0.00
2023-04-07T00:48:19.817Z,0.00
2023-04-07T00:49:19.811Z,0.00
2023-04-07T00:50:19.844Z,0.00
2023-04-07T00:51:19.801Z,0.00
2023-04-07T00:52:19.792Z,0.00
2023-04-07T00:53:19.785Z,0.00
2023-04-07T00:54:19.775Z,0.00
2023-04-07T00:55:19.774Z,0.00
2023-04-07T00:56:19.819Z,0.00
2023-04-07T00:57:19.753Z,0.00
2023-04-07T00:58:19.749Z,0.00
2023-04-07T00:59:19.741Z,0.00
2023-04-07T01:00:19.731Z,0.00
2023-04-07T01:01:19.788Z,0.00
2023-04-07T01:02:19.825Z,0.00
2023-04-07T01:03:19.881Z,0.00
2023-04-07T01:04:19.750Z,0.00
2023-04-07T01:05:19.685Z,0.00
2023-04-07T01:06:19.701Z,0.00
2023-04-07T01:07:19.677Z,0.00
2023-04-07T01:08:19.661Z,0.00
2023-04-07T01:09:19.655Z,0.00
2023-04-07T01:10:19.670Z,0.00
2023-04-07T01:11:19.665Z,0.00
2023-04-07T01:12:19.647Z,0.00
2023-04-07T01:13:19.649Z,0.00
2023-04-07T01:14:19.620Z,0.00
2023-04-07T01:15:19.610Z,0.00
2023-04-07T01:16:19.663Z,0.00
2023-04-07T01:17:19.593Z,0.00
2023-04-07T01:18:19.587Z,0.00
2023-04-07T01:19:19.583Z,0.00
2023-04-07T01:20:19.568Z,0.00
2023-04-07T01:21:19.578Z,0.00
2023-04-07T01:22:19.548Z,0.00
2023-04-07T01:23:19.539Z,0.00
2023-04-07T01:24:19.538Z,0.00
2023-04-07T01:25:19.530Z,0.00
2023-04-07T01:26:19.536Z,0.00
2023-04-07T01:27:19.509Z,0.00
2023-04-07T01:28:19.515Z,0.00
2023-04-07T01:29:19.533Z,0.00
2023-04-07T01:30:19.554Z,0.00
2023-04-07T01:31:19.523Z,0.00
2023-04-07T01:32:19.525Z,0.00
2023-04-07T01:33:19.544Z,0.00
2023-04-07T01:34:19.547Z,0.00
2023-04-07T01:35:19.440Z,0.00
2023-04-07T01:36:19.563Z,0.00
2023-04-07T01:37:19.468Z,0.00
2023-04-07T01:38:19.425Z,0.00
2023-04-07T01:39:19.422Z,0.00
2023-04-07T01:40:19.409Z,0.00
2023-04-07T01:41:19.418Z,0.00
2023-04-07T01:42:19.388Z,0.00
2023-04-07T01:43:19.374Z,0.00
2023-04-07T01:44:19.370Z,0.00
2023-04-07T01:45:19.360Z,0.00
2023-04-07T01:46:19.407Z,0.00
2023-04-07T01:47:19.391Z,0.00
2023-04-07T01:48:19.338Z,0.00
2023-04-07T01:49:19.332Z,0.00
2023-04-07T01:50:19.344Z,0.00
2023-04-07T01:51:19.355Z,0.00
2023-04-07T01:52:19.315Z,0.00
2023-04-07T01:53:19.308Z,0.00
2023-04-07T01:54:19.308Z,0.00
2023-04-07T01:55:19.288Z,0.00
2023-04-07T01:56:19.304Z,0.00
2023-04-07T01:57:19.275Z,0.00
2023-04-07T01:58:19.267Z,0.00
2023-04-07T01:59:19.276Z,0.00
2023-04-07T02:00:19.249Z,0.00
2023-04-07T02:01:19.318Z,0.00
2023-04-07T02:02:19.310Z,0.00
2023-04-07T02:03:19.409Z,0.00
2023-04-07T02:04:19.222Z,0.00
2023-04-07T02:05:19.222Z,0.00
2023-04-07T02:06:19.235Z,0.00
2023-04-07T02:07:19.195Z,0.00
2023-04-07T02:08:19.190Z,0.00
2023-04-07T02:09:19.178Z,0.00
2023-04-07T02:10:19.174Z,0.00
2023-04-07T02:11:19.181Z,0.00
2023-04-07T02:12:19.150Z,0.00
2023-04-07T02:13:19.158Z,0.00
2023-04-07T02:14:19.145Z,0.00
2023-04-07T02:15:19.138Z,0.00
2023-04-07T02:16:19.178Z,0.00
2023-04-07T02:17:19.117Z,0.00
2023-04-07T02:18:19.117Z,0.00
2023-04-07T02:19:19.093Z,0.00
2023-04-07T02:20:19.098Z,0.00
2023-04-07T02:21:19.112Z,0.00
2023-04-07T02:22:19.070Z,0.00
2023-04-07T02:23:19.055Z,0.00
2023-04-07T02:24:20.066Z,0.00
2023-04-07T02:25:19.052Z,0.00
2023-04-07T02:26:19.039Z,0.00
2023-04-07T02:27:19.065Z,0.00
2023-04-07T02:28:19.032Z,0.00
2023-04-07T02:29:19.022Z,0.00
2023-04-07T02:30:19.016Z,0.00
2023-04-07T02:31:19.013Z,0.00
2023-04-07T02:32:19.021Z,0.00
2023-04-07T02:33:18.996Z,0.00
2023-04-07T02:34:18.979Z,0.00
2023-04-07T02:35:18.980Z,0.00
2023-04-07T02:36:18.969Z,0.00
2023-04-07T02:37:18.989Z,0.00
2023-04-07T02:38:18.958Z,0.00
2023-04-07T02:39:18.955Z,0.00
2023-04-07T02:40:18.935Z,0.00
2023-04-07T02:41:18.925Z,0.00
2023-04-07T02:42:18.951Z,0.00
2023-04-07T02:43:18.917Z,0.00
2023-04-07T02:44:18.900Z,0.00
2023-04-07T02:45:18.895Z,0.00
2023-04-07T02:46:18.954Z,0.00
2023-04-07T02:47:18.949Z,0.00
2023-04-07T02:48:18.878Z,0.00
2023-04-07T02:49:18.864Z,0.00
2023-04-07T02:50:18.872Z,0.00
2023-04-07T02:51:18.850Z,0.00
2023-04-07T02:52:18.866Z,0.00
2023-04-07T02:53:18.834Z,0.00
2023-04-07T02:54:18.830Z,0.00
2023-04-07T02:55:18.820Z,0.00
2023-04-07T02:56:18.813Z,0.00
2023-04-07T02:57:18.833Z,0.00
2023-04-07T02:58:18.803Z,0.00
2023-04-07T02:59:18.805Z,0.00
2023-04-07T03:00:18.786Z,0.00
2023-04-07T03:01:18.803Z,0.00
2023-04-07T03:02:18.876Z,0.00
2023-04-07T03:03:18.936Z,0.00
2023-04-07T03:04:18.873Z,0.00
2023-04-07T03:05:18.779Z,0.00
2023-04-07T03:06:18.736Z,0.00
2023-04-07T03:07:18.762Z,0.00
2023-04-07T03:08:18.720Z,0.00
2023-04-07T03:09:18.720Z,0.00
2023-04-07T03:10:18.710Z,0.00
2023-04-07T03:11:18.703Z,0.00
2023-04-07T03:12:18.779Z,0.00
2023-04-07T03:13:18.678Z,0.00
2023-04-07T03:14:18.682Z,0.00
2023-04-07T03:15:19.070Z,0.00
2023-04-07T03:16:19.697Z,0.00
2023-04-07T03:17:18.871Z,0.00
2023-04-07T03:18:18.634Z,0.00
2023-04-07T03:19:19.638Z,0.00
2023-04-07T03:20:18.625Z,0.00
2023-04-07T03:21:18.621Z,0.00
2023-04-07T03:22:18.639Z,0.00
2023-04-07T03:23:18.607Z,0.00
2023-04-07T03:24:18.600Z,0.00
2023-04-07T03:25:18.590Z,0.00
2023-04-07T03:26:18.611Z,0.00
2023-04-07T03:27:18.831Z,0.00
2023-04-07T03:28:18.563Z,0.00
2023-04-07T03:29:18.552Z,0.00
2023-04-07T03:30:18.548Z,0.00
2023-04-07T03:31:18.577Z,0.00
2023-04-07T03:32:18.564Z,0.00
2023-04-07T03:33:18.541Z,0.00
2023-04-07T03:34:18.513Z,0.00
2023-04-07T03:35:18.512Z,0.00
2023-04-07T03:36:18.543Z,0.00
2023-04-07T03:37:18.537Z,0.00
2023-04-07T03:38:18.486Z,0.00
2023-04-07T03:39:18.479Z,0.00
2023-04-07T03:40:18.469Z,0.00
2023-04-07T03:41:18.459Z,0.00
2023-04-07T03:42:18.907Z,0.00
2023-04-07T03:43:18.446Z,0.00
2023-04-07T03:44:18.452Z,0.00
2023-04-07T03:45:18.451Z,0.00
2023-04-07T03:46:18.467Z,0.00
2023-04-07T03:47:18.448Z,0.00
2023-04-07T03:48:18.409Z,0.00
2023-04-07T03:49:18.403Z,0.00
2023-04-07T03:50:18.408Z,0.00
2023-04-07T03:51:18.384Z,0.00
2023-04-07T03:52:18.402Z,0.00
2023-04-07T03:53:18.369Z,0.00
2023-04-07T03:54:18.361Z,0.00
2023-04-07T03:55:18.365Z,0.00
2023-04-07T03:56:18.356Z,0.00
2023-04-07T03:57:18.369Z,0.00
2023-04-07T03:58:18.330Z,0.00
2023-04-07T03:59:18.322Z,0.00
2023-04-07T04:00:18.327Z,0.00
2023-04-07T04:01:18.308Z,0.00
2023-04-07T04:02:18.399Z,0.00
2023-04-07T04:03:18.510Z,0.00
2023-04-07T04:04:18.369Z,0.00
2023-04-07T04:05:18.282Z,0.00
2023-04-07T04:06:18.279Z,0.00
2023-04-07T04:07:18.292Z,0.00
2023-04-07T04:08:18.262Z,0.00
2023-04-07T04:09:18.256Z,0.00
2023-04-07T04:10:18.247Z,0.00
2023-04-07T04:11:18.239Z,0.00
2023-04-07T04:12:18.255Z,0.00
2023-04-07T04:13:18.218Z,0.00
2023-04-07T04:14:18.219Z,0.00
2023-04-07T04:15:18.211Z,0.00
2023-04-07T04:16:18.227Z,0.00
2023-04-07T04:17:18.219Z,0.00
2023-04-07T04:18:18.181Z,0.00
2023-04-07T04:19:18.175Z,0.00
2023-04-07T04:20:18.165Z,0.00
2023-04-07T04:21:18.157Z,0.00
2023-04-07T04:22:18.174Z,0.00
2023-04-07T04:23:18.144Z,0.00
2023-04-07T04:24:18.142Z,0.00
2023-04-07T04:25:18.130Z,0.00
2023-04-07T04:26:18.123Z,0.00
2023-04-07T04:27:18.156Z,0.00
2023-04-07T04:28:18.112Z,0.00
2023-04-07T04:29:18.108Z,0.00
2023-04-07T04:30:18.112Z,0.00
2023-04-07T04:31:18.094Z,0.00
2023-04-07T04:32:18.107Z,0.00
2023-04-07T04:33:18.077Z,0.00
2023-04-07T04:34:18.071Z,0.00
2023-04-07T04:35:18.056Z,0.00
2023-04-07T04:36:18.069Z,0.00
2023-04-07T04:37:18.067Z,0.00
2023-04-07T04:38:18.034Z,0.00
2023-04-07T04:39:18.024Z,0.00
2023-04-07T04:40:18.021Z,0.00
2023-04-07T04:41:18.009Z,0.00
2023-04-07T04:42:18.024Z,0.00
2023-04-07T04:43:17.986Z,0.00
2023-04-07T04:44:17.997Z,0.00
2023-04-07T04:45:17.966Z,0.00
2023-04-07T04:46:17.962Z,0.00
2023-04-07T04:47:18.093Z,0.00
2023-04-07T04:48:17.940Z,0.00
2023-04-07T04:49:17.938Z,5.62
2023-04-07T04:50:17.936Z,5.62
2023-04-07T04:51:17.920Z,5.62
2023-04-07T04:52:17.944Z,5.62
2023-04-07T04:53:17.907Z,5.62
2023-04-07T04:54:17.901Z,5.62
2023-04-07T04:55:17.897Z,11.25
2023-04-07T04:56:17.888Z,11.25
2023-04-07T04:57:17.905Z,11.25
2023-04-07T04:58:17.868Z,11.25
2023-04-07T04:59:17.863Z,16.88
2023-04-07T05:00:17.863Z,16.88
2023-04-07T05:01:17.877Z,16.88
2023-04-07T05:02:17.936Z,16.88
2023-04-07T05:03:18.138Z,16.88
2023-04-07T05:04:18.040Z,16.88
2023-04-07T05:05:17.872Z,22.50
2023-04-07T05:06:17.812Z,28.12
2023-04-07T05:07:17.824Z,33.75
2023-04-07T05:08:17.784Z,45.00
2023-04-07T05:10:36.332Z,84.38
2023-04-07T05:11:36.363Z,56.25
2023-04-07T05:12:36.363Z,50.62
2023-04-07T05:13:36.356Z,61.88
2023-04-07T05:14:36.325Z,84.38
2023-04-07T05:15:36.315Z,112.50
2023-04-07T05:16:36.416Z,185.62
2023-04-07T05:17:36.394Z,315.00
2023-04-07T05:18:36.292Z,416.25
2023-04-07T05:19:36.292Z,438.75
2023-04-07T05:20:36.277Z,444.38
2023-04-07T05:21:36.279Z,466.88
2023-04-07T05:22:36.285Z,534.38
2023-04-07T05:23:36.263Z,601.88
2023-04-07T05:24:36.242Z,646.88
2023-04-07T05:25:36.239Z,731.25
2023-04-07T05:26:36.226Z,776.25
2023-04-07T05:27:36.249Z,838.12
2023-04-07T05:28:36.217Z,995.62
2023-04-07T05:29:36.208Z,1057.50
2023-04-07T05:30:36.199Z,1057.50
2023-04-07T05:31:36.216Z,1074.38
2023-04-07T05:32:36.216Z,1063.12
2023-04-07T05:33:36.177Z,1051.88
2023-04-07T05:34:36.171Z,984.38
2023-04-07T05:35:36.164Z,888.75
2023-04-07T05:36:37.285Z,821.25
2023-04-07T05:37:37.308Z,742.50
2023-04-07T05:38:37.275Z,703.12
2023-04-07T05:39:37.264Z,545.62
2023-04-07T05:40:37.723Z,388.12
2023-04-07T05:41:38.256Z,270.00
2023-04-07T05:42:37.269Z,191.25
2023-04-07T05:43:37.240Z,174.38
2023-04-07T05:44:37.229Z,180.00
2023-04-07T05:45:37.258Z,180.00
2023-04-07T05:46:37.217Z,168.75
2023-04-07T05:47:37.264Z,157.50
2023-04-07T05:48:37.200Z,151.88
2023-04-07T05:49:37.190Z,135.00
2023-04-07T05:50:37.196Z,129.38
2023-04-07T05:51:37.174Z,123.75
2023-04-07T05:52:37.200Z,123.75
2023-04-07T05:53:37.164Z,123.75
2023-04-07T05:54:37.152Z,118.12
2023-04-07T05:55:37.146Z,118.12
2023-04-07T05:56:37.138Z,118.12
2023-04-07T05:57:37.156Z,112.50
2023-04-07T05:58:37.125Z,112.50
2023-04-07T05:59:37.119Z,112.50
2023-04-07T06:00:37.147Z,112.50
2023-04-07T06:01:37.153Z,112.50
2023-04-07T06:02:37.194Z,112.50
2023-04-07T06:03:37.149Z,112.50
2023-04-07T06:04:37.076Z,112.50
2023-04-07T06:05:37.129Z,112.50
2023-04-07T06:06:37.060Z,112.50
2023-04-07T06:07:37.081Z,112.50
2023-04-07T06:08:37.049Z,112.50
2023-04-07T06:09:37.040Z,106.88
2023-04-07T06:10:37.025Z,106.88
2023-04-07T06:11:37.037Z,106.88
2023-04-07T06:12:37.040Z,106.88
2023-04-07T06:13:36.998Z,106.88
2023-04-07T06:14:37.053Z,106.88
2023-04-07T06:15:36.993Z,112.50
2023-04-07T06:16:37.002Z,118.12
2023-04-07T06:17:37.029Z,123.75
2023-04-07T06:18:36.984Z,129.38
2023-04-07T06:19:36.957Z,140.62
2023-04-07T06:20:36.947Z,151.88
2023-04-07T06:21:36.947Z,163.12
2023-04-07T06:22:36.959Z,168.75
2023-04-07T06:23:36.932Z,174.38
2023-04-07T06:24:36.914Z,180.00
2023-04-07T06:25:36.933Z,185.62
2023-04-07T06:26:36.907Z,191.25
2023-04-07T06:27:36.931Z,191.25
2023-04-07T06:28:36.893Z,185.62
2023-04-07T06:29:36.877Z,185.62
2023-04-07T06:30:37.887Z,180.00
2023-04-07T06:31:36.866Z,180.00
2023-04-07T06:32:36.983Z,180.00
2023-04-07T06:33:36.876Z,180.00
2023-04-07T06:34:36.843Z,180.00
2023-04-07T06:35:36.844Z,180.00
2023-04-07T06:36:36.863Z,180.00
2023-04-07T06:37:36.817Z,185.62
2023-04-07T06:38:36.844Z,191.25
2023-04-07T06:39:36.806Z,196.88
2023-04-07T06:40:36.794Z,208.12
2023-04-07T06:41:36.786Z,213.75
2023-04-07T06:42:36.785Z,219.38
2023-04-07T06:43:37.073Z,219.38
2023-04-07T06:44:36.778Z,219.38
2023-04-07T06:45:36.761Z,213.75
2023-04-07T06:46:36.814Z,213.75
2023-04-07T06:47:36.765Z,213.75
2023-04-07T06:48:36.754Z,213.75
2023-04-07T06:49:37.288Z,219.38
2023-04-07T06:50:37.714Z,219.38
2023-04-07T06:51:36.713Z,225.00
2023-04-07T06:52:36.699Z,225.00
2023-04-07T06:53:36.716Z,225.00
2023-04-07T06:54:36.693Z,225.00
2023-04-07T06:55:36.704Z,225.00
2023-04-07T06:56:36.670Z,219.38
2023-04-07T06:57:36.983Z,213.75
2023-04-07T06:58:36.678Z,208.12
2023-04-07T06:59:36.647Z,202.50
2023-04-07T07:00:36.653Z,191.25
2023-04-07T07:01:36.692Z,185.62
2023-04-07T07:02:36.716Z,180.00
2023-04-07T07:03:36.721Z,168.75
2023-04-07T07:04:36.624Z,163.12
2023-04-07T07:05:36.597Z,163.12
2023-04-07T07:06:36.591Z,157.50
2023-04-07T07:07:36.588Z,151.88
2023-04-07T07:08:36.646Z,151.88
2023-04-07T07:09:36.646Z,151.88
2023-04-07T07:10:36.552Z,151.88
2023-04-07T07:11:37.547Z,151.88
2023-04-07T07:12:36.544Z,157.50
2023-04-07T07:13:36.564Z,163.12
2023-04-07T07:14:36.535Z,168.75
2023-04-07T07:15:36.532Z,168.75
2023-04-07T07:16:36.518Z,174.38
2023-04-07T07:17:36.529Z,180.00
2023-04-07T07:18:36.528Z,185.62
2023-04-07T07:19:36.494Z,185.62
2023-04-07T07:20:36.487Z,191.25
2023-04-07T07:21:36.484Z,185.62
2023-04-07T07:22:36.475Z,185.62
2023-04-07T07:23:36.496Z,180.00
2023-04-07T07:24:36.458Z,180.00
2023-04-07T07:25:36.450Z,185.62
2023-04-07T07:26:36.525Z,185.62
2023-04-07T07:27:36.432Z,191.25
2023-04-07T07:28:36.457Z,191.25
2023-04-07T07:29:36.422Z,191.25
2023-04-07T07:30:36.419Z,191.25
2023-04-07T07:31:36.454Z,196.88
2023-04-07T07:32:36.476Z,196.88
2023-04-07T07:33:36.413Z,202.50
2023-04-07T07:34:36.384Z,208.12
2023-04-07T07:35:36.373Z,219.38
2023-04-07T07:36:36.365Z,225.00
2023-04-07T07:37:36.365Z,230.62
2023-04-07T07:38:37.682Z,241.88
2023-04-07T07:39:36.343Z,253.12
2023-04-07T07:40:36.353Z,258.75
2023-04-07T07:41:36.333Z,258.75
2023-04-07T07:42:36.317Z,258.75
2023-04-07T07:43:36.337Z,258.75
2023-04-07T07:44:36.312Z,258.75
2023-04-07T07:45:36.303Z,258.75
2023-04-07T07:46:36.325Z,264.38
2023-04-07T07:47:36.310Z,264.38
2023-04-07T07:48:36.298Z,270.00
2023-04-07T07:49:36.270Z,275.62
2023-04-07T07:50:36.258Z,292.50
2023-04-07T07:51:36.249Z,309.38
2023-04-07T07:52:36.248Z,331.88
2023-04-07T07:53:36.260Z,348.75
2023-04-07T07:54:36.231Z,371.25
2023-04-07T07:55:36.221Z,393.75
2023-04-07T07:56:36.213Z,410.62
2023-04-07T07:57:36.209Z,433.12
2023-04-07T07:58:36.221Z,450.00
2023-04-07T07:59:36.191Z,472.50
2023-04-07T08:00:36.189Z,495.00
2023-04-07T08:01:36.175Z,495.00
2023-04-07T08:02:36.242Z,511.88
2023-04-07T08:03:36.325Z,506.25
2023-04-07T08:04:36.218Z,495.00
2023-04-07T08:05:36.139Z,517.50
2023-04-07T08:06:36.132Z,506.25
2023-04-07T08:07:36.125Z,500.62
2023-04-07T08:08:36.138Z,517.50
2023-04-07T08:09:36.105Z,506.25
2023-04-07T08:10:36.098Z,495.00
2023-04-07T08:11:36.124Z,461.25
2023-04-07T08:12:36.085Z,438.75
2023-04-07T08:13:36.101Z,421.88
2023-04-07T08:14:36.070Z,410.62
2023-04-07T08:15:36.063Z,399.38
2023-04-07T08:16:36.160Z,410.62
2023-04-07T08:17:36.111Z,410.62
2023-04-07T08:18:36.061Z,416.25
2023-04-07T08:19:36.031Z,410.62
2023-04-07T08:20:36.024Z,405.00
2023-04-07T08:21:36.024Z,405.00
2023-04-07T08:22:36.010Z,399.38
2023-04-07T08:23:36.035Z,399.38
2023-04-07T08:24:35.995Z,410.62
2023-04-07T08:25:35.995Z,427.50
2023-04-07T08:26:35.977Z,438.75
2023-04-07T08:27:35.972Z,444.38
2023-04-07T08:28:35.985Z,438.75
2023-04-07T08:29:35.959Z,450.00
2023-04-07T08:30:35.943Z,478.12
2023-04-07T08:31:35.976Z,506.25
2023-04-07T08:32:35.988Z,523.12
2023-04-07T08:33:35.951Z,511.88
2023-04-07T08:34:35.928Z,495.00
2023-04-07T08:35:35.908Z,495.00
2023-04-07T08:36:35.940Z,511.88
2023-04-07T08:37:35.889Z,528.75
2023-04-07T08:38:35.909Z,545.62
2023-04-07T08:39:35.876Z,545.62
2023-04-07T08:40:35.875Z,551.25
2023-04-07T08:41:35.864Z,540.00
2023-04-07T08:42:35.853Z,517.50
2023-04-07T08:43:35.883Z,489.38
2023-04-07T08:44:35.838Z,495.00
2023-04-07T08:45:35.825Z,511.88
2023-04-07T08:46:35.876Z,534.38
2023-04-07T08:47:35.824Z,556.88
2023-04-07T08:48:35.824Z,585.00
2023-04-07T08:49:35.792Z,596.25
2023-04-07T08:50:35.786Z,613.12
2023-04-07T08:51:35.784Z,641.25
2023-04-07T08:52:35.770Z,646.88
2023-04-07T08:53:35.787Z,641.25
2023-04-07T08:54:35.753Z,691.88
2023-04-07T08:55:35.744Z,933.75
2023-04-07T08:56:35.737Z,1040.62
2023-04-07T08:57:35.729Z,804.38
2023-04-07T08:58:35.752Z,776.25
2023-04-07T08:59:35.715Z,810.00
2023-04-07T09:00:35.707Z,956.25
2023-04-07T09:01:35.975Z,967.50
2023-04-07T09:02:35.823Z,646.88
2023-04-07T09:03:35.805Z,646.88
2023-04-07T09:04:35.682Z,658.12
2023-04-07T09:05:35.673Z,646.88
2023-04-07T09:06:35.662Z,658.12
2023-04-07T09:07:35.662Z,669.38
2023-04-07T09:08:35.668Z,708.75
2023-04-07T09:09:35.639Z,697.50
2023-04-07T09:10:35.627Z,691.88
2023-04-07T09:11:35.623Z,691.88
2023-04-07T09:12:35.612Z,680.62
2023-04-07T09:13:35.637Z,658.12
2023-04-07T09:14:35.596Z,618.75
2023-04-07T09:15:38.020Z,607.50
2023-04-07T09:16:35.624Z,635.62
2023-04-07T09:17:35.608Z,646.88
2023-04-07T09:18:35.590Z,641.25
2023-04-07T09:19:35.565Z,630.00
2023-04-07T09:20:35.552Z,618.75
2023-04-07T09:21:35.540Z,601.88
2023-04-07T09:22:35.543Z,607.50
2023-04-07T09:23:35.561Z,641.25
2023-04-07T09:24:35.530Z,714.38
2023-04-07T09:25:35.513Z,753.75
2023-04-07T09:26:35.501Z,708.75
2023-04-07T09:27:35.494Z,720.00
2023-04-07T09:28:35.532Z,697.50
2023-04-07T09:29:35.477Z,686.25
2023-04-07T09:30:35.470Z,680.62
2023-04-07T09:31:35.487Z,697.50
2023-04-07T09:32:35.471Z,720.00
2023-04-07T09:33:35.474Z,765.00
2023-04-07T09:34:35.439Z,798.75
2023-04-07T09:35:35.436Z,815.62
2023-04-07T09:36:35.432Z,826.88
2023-04-07T09:37:35.420Z,855.00
2023-04-07T09:38:35.413Z,871.88
2023-04-07T09:39:35.428Z,860.62
2023-04-07T09:40:35.388Z,843.75
2023-04-07T09:41:36.423Z,838.12
2023-04-07T09:42:35.392Z,832.50
2023-04-07T09:43:35.394Z,810.00
2023-04-07T09:44:35.369Z,793.12
2023-04-07T09:45:36.769Z,781.88
2023-04-07T09:46:35.431Z,765.00
2023-04-07T09:47:35.352Z,748.12
2023-04-07T09:48:35.343Z,742.50
2023-04-07T09:49:35.362Z,753.75
2023-04-07T09:50:35.377Z,759.38
2023-04-07T09:51:35.930Z,731.25
2023-04-07T09:52:35.297Z,753.75
2023-04-07T09:53:35.291Z,793.12
2023-04-07T09:54:35.320Z,776.25
2023-04-07T09:55:35.286Z,742.50
2023-04-07T09:56:35.283Z,703.12
2023-04-07T09:57:35.261Z,646.88
2023-04-07T09:58:35.248Z,613.12
2023-04-07T09:59:35.267Z,585.00
2023-04-07T10:00:35.234Z,613.12
2023-04-07T10:01:35.310Z,658.12
2023-04-07T10:02:35.291Z,652.50
2023-04-07T10:03:35.285Z,646.88
2023-04-07T10:04:35.303Z,635.62
2023-04-07T10:05:35.196Z,646.88
2023-04-07T10:06:35.186Z,652.50
2023-04-07T10:07:35.179Z,663.75
2023-04-07T10:08:35.173Z,669.38
2023-04-07T10:09:35.186Z,675.00
2023-04-07T10:10:35.159Z,686.25
2023-04-07T10:11:35.145Z,697.50
2023-04-07T10:12:35.136Z,720.00
2023-04-07T10:13:35.139Z,720.00
2023-04-07T10:14:35.156Z,725.62
2023-04-07T10:15:35.121Z,725.62
2023-04-07T10:16:35.145Z,720.00
2023-04-07T10:17:35.114Z,697.50
2023-04-07T10:18:35.097Z,663.75
2023-04-07T10:19:35.105Z,646.88
2023-04-07T10:20:35.084Z,635.62
2023-04-07T10:21:35.072Z,635.62
2023-04-07T10:22:35.067Z,630.00
2023-04-07T10:23:35.049Z,624.38
2023-04-07T10:24:35.097Z,618.75
2023-04-07T10:25:35.039Z,618.75
2023-04-07T10:26:35.029Z,630.00
2023-04-07T10:27:35.018Z,646.88
2023-04-07T10:28:35.018Z,669.38
2023-04-07T10:29:35.032Z,663.75
2023-04-07T10:30:35.000Z,669.38
2023-04-07T10:31:35.068Z,708.75
2023-04-07T10:32:35.033Z,697.50
2023-04-07T10:33:34.975Z,691.88
2023-04-07T10:34:34.992Z,641.25
2023-04-07T10:35:34.974Z,624.38
2023-04-07T10:36:34.952Z,613.12
2023-04-07T10:37:34.947Z,601.88
2023-04-07T10:38:34.933Z,601.88
2023-04-07T10:39:34.949Z,573.75
2023-04-07T10:40:34.931Z,540.00
2023-04-07T10:41:34.924Z,556.88
2023-04-07T10:42:34.895Z,556.88
2023-04-07T10:43:35.118Z,573.75
2023-04-07T10:44:34.914Z,568.12
2023-04-07T10:45:34.879Z,556.88
2023-04-07T10:46:34.941Z,585.00
2023-04-07T10:47:35.009Z,579.38
2023-04-07T10:48:34.857Z,585.00
2023-04-07T10:49:34.902Z,579.38
2023-04-07T10:50:34.838Z,556.88
2023-04-07T10:51:34.829Z,483.75
2023-04-07T10:52:34.819Z,540.00
2023-04-07T10:53:34.836Z,523.12
2023-04-07T10:54:34.840Z,545.62
2023-04-07T10:55:34.813Z,478.12
2023-04-07T10:56:34.792Z,534.38
2023-04-07T10:57:34.785Z,562.50
2023-04-07T10:58:34.778Z,562.50
2023-04-07T10:59:34.803Z,568.12
2023-04-07T11:00:34.762Z,573.75
2023-04-07T11:01:34.815Z,579.38
2023-04-07T11:02:34.941Z,579.38
2023-04-07T11:03:34.805Z,573.75
2023-04-07T11:04:34.893Z,579.38
2023-04-07T11:05:34.724Z,523.12
2023-04-07T11:06:34.713Z,568.12
2023-04-07T11:07:34.706Z,551.25
2023-04-07T11:08:34.699Z,568.12
2023-04-07T11:09:34.719Z,551.25
2023-04-07T11:10:34.680Z,534.38
2023-04-07T11:11:34.673Z,568.12
2023-04-07T11:12:34.665Z,523.12
2023-04-07T11:13:34.657Z,534.38
2023-04-07T11:14:35.742Z,551.25
2023-04-07T11:15:34.660Z,551.25
2023-04-07T11:16:34.678Z,579.38
2023-04-07T11:17:34.651Z,613.12
2023-04-07T11:18:34.626Z,573.75
2023-04-07T11:19:34.629Z,573.75
2023-04-07T11:20:34.648Z,601.88
2023-04-07T11:21:34.644Z,556.88
2023-04-07T11:22:34.606Z,545.62
2023-04-07T11:23:34.582Z,590.62
2023-04-07T11:24:34.573Z,534.38
2023-04-07T11:25:34.583Z,528.75
2023-04-07T11:26:35.558Z,534.38
2023-04-07T11:27:34.545Z,551.25
2023-04-07T11:28:34.553Z,556.88
2023-04-07T11:29:34.537Z,562.50
2023-04-07T11:30:34.557Z,601.88
2023-04-07T11:31:34.584Z,669.38
2023-04-07T11:32:34.518Z,618.75
2023-04-07T11:33:34.518Z,618.75
2023-04-07T11:34:34.491Z,658.12
2023-04-07T11:35:35.053Z,630.00
2023-04-07T11:36:34.467Z,624.38
2023-04-07T11:37:34.475Z,613.12
2023-04-07T11:38:34.466Z,618.75
2023-04-07T11:39:34.448Z,607.50
2023-04-07T11:40:34.476Z,596.25
2023-04-07T11:41:34.440Z,607.50
2023-04-07T11:42:34.424Z,601.88
2023-04-07T11:43:34.426Z,607.50
2023-04-07T11:44:34.464Z,601.88
2023-04-07T11:45:34.431Z,596.25
2023-04-07T11:46:34.419Z,596.25
2023-04-07T11:47:34.447Z,556.88
2023-04-07T11:48:34.391Z,596.25
2023-04-07T11:49:34.369Z,568.12
2023-04-07T11:50:34.392Z,500.62
2023-04-07T11:51:34.357Z,534.38
2023-04-07T11:52:34.359Z,585.00
2023-04-07T11:53:34.347Z,585.00
2023-04-07T11:54:34.328Z,585.00
2023-04-07T11:55:34.353Z,590.62
2023-04-07T11:56:34.316Z,568.12
2023-04-07T11:57:34.321Z,568.12
2023-04-07T11:58:34.304Z,540.00
2023-04-07T11:59:34.317Z,500.62
2023-04-07T12:00:34.310Z,489.38
2023-04-07T12:01:34.346Z,483.75
2023-04-07T12:02:34.389Z,483.75
2023-04-07T12:03:34.341Z,511.88
2023-04-07T12:04:34.332Z,551.25
2023-04-07T12:05:34.271Z,495.00
2023-04-07T12:06:34.241Z,517.50
2023-04-07T12:07:34.226Z,483.75
2023-04-07T12:08:34.233Z,540.00
2023-04-07T12:09:34.225Z,495.00
2023-04-07T12:10:34.234Z,455.62
2023-04-07T12:11:34.211Z,489.38
2023-04-07T12:12:34.195Z,444.38
2023-04-07T12:13:34.194Z,450.00
2023-04-07T12:14:34.184Z,438.75
2023-04-07T12:15:34.193Z,433.12
2023-04-07T12:16:34.212Z,427.50
2023-04-07T12:17:34.227Z,495.00
2023-04-07T12:18:34.152Z,444.38
2023-04-07T12:19:34.145Z,427.50
2023-04-07T12:20:36.013Z,438.75
2023-04-07T12:21:34.131Z,388.12
2023-04-07T12:22:34.121Z,421.88
2023-04-07T12:23:34.111Z,444.38
2023-04-07T12:24:34.101Z,410.62
2023-04-07T12:25:34.128Z,450.00
2023-04-07T12:26:34.082Z,433.12
2023-04-07T12:27:42.845Z,438.75
2023-04-07T12:28:36.068Z,433.12
2023-04-07T12:29:34.062Z,455.62
2023-04-07T12:30:34.080Z,455.62
2023-04-07T12:31:34.128Z,450.00
2023-04-07T12:32:34.082Z,461.25
2023-04-07T12:33:34.027Z,466.88
2023-04-07T12:34:34.017Z,466.88
2023-04-07T12:35:34.027Z,466.88
2023-04-07T12:36:34.035Z,466.88
2023-04-07T12:37:34.010Z,472.50
2023-04-07T12:38:33.998Z,472.50
2023-04-07T12:39:33.979Z,466.88
2023-04-07T12:40:33.969Z,466.88
2023-04-07T12:41:33.989Z,466.88
2023-04-07T12:42:33.955Z,466.88
2023-04-07T12:43:33.948Z,472.50
2023-04-07T12:44:33.947Z,478.12
2023-04-07T12:45:33.961Z,483.75
2023-04-07T12:46:33.966Z,483.75
2023-04-07T12:47:33.995Z,483.75
2023-04-07T12:48:33.922Z,483.75